sensor_id;sensor_type;location;lat;lon;timestamp;P1;durP1;ratioP1;P2;durP2;ratioP2
10315;SDS011;5203;48.976;8.306;2023-08-17T00:01:34;780.50;;;748.28;;
10315;SDS011;5203;48.976;8.306;2023-08-17T00:03:59;762.85;;;732.65;;
10315;SDS011;5203;48.976;8.306;2023-08-17T00:06:25;762.53;;;731.95;;
10315;SDS011;5203;48.976;8.306;2023-08-17T00:08:51;739.15;;;709.75;;
10315;SDS011;5203;48.976;8.306;2023-08-17T00:11:16;771.97;;;741.25;;
10315;SDS011;5203;48.976;8.306;2023-08-17T00:13:42;764.65;;;734.35;;
10315;SDS011;5203;48.976;8.306;2023-08-17T00:16:07;748.08;;;718.50;;
10315;SDS011;5203;48.976;8.306;2023-08-17T00:18:33;768.05;;;736.65;;
10315;SDS011;5203;48.976;8.306;2023-08-17T00:20:59;727.75;;;699.70;;
10315;SDS011;5203;48.976;8.306;2023-08-17T00:23:25;727.10;;;699.33;;
10315;SDS011;5203;48.976;8.306;2023-08-17T00:25:51;716.03;;;688.97;;
10315;SDS011;5203;48.976;8.306;2023-08-17T00:28:16;721.88;;;694.13;;
10315;SDS011;5203;48.976;8.306;2023-08-17T00:30:42;731.30;;;703.58;;
10315;SDS011;5203;48.976;8.306;2023-08-17T00:33:07;728.95;;;701.05;;
10315;SDS011;5203;48.976;8.306;2023-08-17T00:35:33;719.92;;;692.60;;
10315;SDS011;5203;48.976;8.306;2023-08-17T00:37:59;714.13;;;686.95;;
10315;SDS011;5203;48.976;8.306;2023-08-17T00:40:25;753.80;;;723.63;;
10315;SDS011;5203;48.976;8.306;2023-08-17T00:42:50;787.20;;;755.15;;
10315;SDS011;5203;48.976;8.306;2023-08-17T00:45:17;776.08;;;744.45;;
10315;SDS011;5203;48.976;8.306;2023-08-17T00:47:44;787.33;;;754.33;;
10315;SDS011;5203;48.976;8.306;2023-08-17T00:50:11;801.15;;;767.85;;
10315;SDS011;5203;48.976;8.306;2023-08-17T00:52:37;780.22;;;747.80;;
10315;SDS011;5203;48.976;8.306;2023-08-17T00:55:03;749.45;;;718.80;;
10315;SDS011;5203;48.976;8.306;2023-08-17T00:57:30;784.90;;;752.40;;
10315;SDS011;5203;48.976;8.306;2023-08-17T00:59:58;797.92;;;764.45;;
10315;SDS011;5203;48.976;8.306;2023-08-17T01:02:24;795.30;;;762.17;;
10315;SDS011;5203;48.976;8.306;2023-08-17T01:04:50;778.83;;;746.58;;
10315;SDS011;5203;48.976;8.306;2023-08-17T01:07:15;784.78;;;752.67;;
10315;SDS011;5203;48.976;8.306;2023-08-17T01:09:41;751.30;;;721.65;;
10315;SDS011;5203;48.976;8.306;2023-08-17T01:12:16;745.35;;;716.30;;
10315;SDS011;5203;48.976;8.306;2023-08-17T01:15:13;739.83;;;711.45;;
10315;SDS011;5203;48.976;8.306;2023-08-17T01:17:43;726.58;;;698.80;;
10315;SDS011;5203;48.976;8.306;2023-08-17T01:20:28;714.38;;;687.60;;
10315;SDS011;5203;48.976;8.306;2023-08-17T01:22:56;708.80;;;682.15;;
10315;SDS011;5203;48.976;8.306;2023-08-17T01:25:34;744.60;;;715.55;;
10315;SDS011;5203;48.976;8.306;2023-08-17T01:28:01;780.70;;;748.25;;
10315;SDS011;5203;48.976;8.306;2023-08-17T01:30:28;793.33;;;759.70;;
10315;SDS011;5203;48.976;8.306;2023-08-17T01:33:03;781.45;;;749.55;;
10315;SDS011;5203;48.976;8.306;2023-08-17T01:35:35;777.78;;;745.60;;
10315;SDS011;5203;48.976;8.306;2023-08-17T01:38:04;762.67;;;731.63;;
10315;SDS011;5203;48.976;8.306;2023-08-17T01:40:34;769.50;;;737.85;;
10315;SDS011;5203;48.976;8.306;2023-08-17T01:43:03;764.65;;;733.92;;
10315;SDS011;5203;48.976;8.306;2023-08-17T01:45:29;765.08;;;733.38;;
10315;SDS011;5203;48.976;8.306;2023-08-17T01:47:55;768.40;;;737.42;;
10315;SDS011;5203;48.976;8.306;2023-08-17T01:50:21;756.22;;;725.75;;
10315;SDS011;5203;48.976;8.306;2023-08-17T01:52:46;771.58;;;740.13;;
10315;SDS011;5203;48.976;8.306;2023-08-17T01:55:12;760.42;;;729.08;;
10315;SDS011;5203;48.976;8.306;2023-08-17T01:57:38;773.28;;;741.40;;
10315;SDS011;5203;48.976;8.306;2023-08-17T02:00:04;765.53;;;734.58;;
10315;SDS011;5203;48.976;8.306;2023-08-17T02:02:30;776.00;;;744.38;;
10315;SDS011;5203;48.976;8.306;2023-08-17T02:04:56;763.53;;;732.63;;
10315;SDS011;5203;48.976;8.306;2023-08-17T02:07:22;747.15;;;717.80;;
10315;SDS011;5203;48.976;8.306;2023-08-17T02:09:48;719.72;;;692.53;;
10315;SDS011;5203;48.976;8.306;2023-08-17T02:12:13;710.90;;;684.40;;
10315;SDS011;5203;48.976;8.306;2023-08-17T02:14:39;737.00;;;708.20;;
10315;SDS011;5203;48.976;8.306;2023-08-17T02:17:04;731.22;;;702.92;;
10315;SDS011;5203;48.976;8.306;2023-08-17T02:19:30;732.58;;;704.25;;
10315;SDS011;5203;48.976;8.306;2023-08-17T02:21:57;710.70;;;683.17;;
10315;SDS011;5203;48.976;8.306;2023-08-17T02:24:23;728.28;;;700.30;;
10315;SDS011;5203;48.976;8.306;2023-08-17T02:26:49;730.10;;;702.15;;
10315;SDS011;5203;48.976;8.306;2023-08-17T02:29:15;757.70;;;727.58;;
10315;SDS011;5203;48.976;8.306;2023-08-17T02:31:41;736.40;;;708.00;;
10315;SDS011;5203;48.976;8.306;2023-08-17T02:34:07;739.65;;;710.75;;
10315;SDS011;5203;48.976;8.306;2023-08-17T02:36:33;715.08;;;688.17;;
10315;SDS011;5203;48.976;8.306;2023-08-17T02:38:58;689.47;;;664.05;;
10315;SDS011;5203;48.976;8.306;2023-08-17T02:41:24;688.55;;;663.25;;
10315;SDS011;5203;48.976;8.306;2023-08-17T02:43:49;679.10;;;654.50;;
10315;SDS011;5203;48.976;8.306;2023-08-17T02:46:15;653.50;;;630.30;;
10315;SDS011;5203;48.976;8.306;2023-08-17T02:48:41;642.30;;;619.63;;
10315;SDS011;5203;48.976;8.306;2023-08-17T02:51:06;609.63;;;588.60;;
10315;SDS011;5203;48.976;8.306;2023-08-17T02:53:32;586.80;;;567.08;;
10315;SDS011;5203;48.976;8.306;2023-08-17T02:55:58;564.25;;;545.35;;
10315;SDS011;5203;48.976;8.306;2023-08-17T02:58:23;575.13;;;555.97;;
10315;SDS011;5203;48.976;8.306;2023-08-17T03:00:52;572.83;;;553.80;;
10315;SDS011;5203;48.976;8.306;2023-08-17T03:03:18;559.92;;;541.55;;
10315;SDS011;5203;48.976;8.306;2023-08-17T03:05:44;573.75;;;554.67;;
10315;SDS011;5203;48.976;8.306;2023-08-17T03:08:10;551.13;;;533.03;;
10315;SDS011;5203;48.976;8.306;2023-08-17T03:10:36;557.38;;;539.03;;
10315;SDS011;5203;48.976;8.306;2023-08-17T03:13:02;509.77;;;493.40;;
10315;SDS011;5203;48.976;8.306;2023-08-17T03:15:28;474.25;;;459.63;;
10315;SDS011;5203;48.976;8.306;2023-08-17T03:17:54;467.30;;;452.52;;
10315;SDS011;5203;48.976;8.306;2023-08-17T03:20:20;452.65;;;438.48;;
10315;SDS011;5203;48.976;8.306;2023-08-17T03:22:45;457.00;;;443.00;;
10315;SDS011;5203;48.976;8.306;2023-08-17T03:25:11;483.73;;;468.52;;
10315;SDS011;5203;48.976;8.306;2023-08-17T03:27:36;490.42;;;475.30;;
10315;SDS011;5203;48.976;8.306;2023-08-17T03:30:03;481.60;;;466.52;;
10315;SDS011;5203;48.976;8.306;2023-08-17T03:32:29;481.80;;;466.73;;
10315;SDS011;5203;48.976;8.306;2023-08-17T03:34:55;438.92;;;425.58;;
10315;SDS011;5203;48.976;8.306;2023-08-17T03:37:21;465.38;;;450.98;;
10315;SDS011;5203;48.976;8.306;2023-08-17T03:39:46;453.35;;;439.23;;
10315;SDS011;5203;48.976;8.306;2023-08-17T03:42:12;439.05;;;425.60;;
10315;SDS011;5203;48.976;8.306;2023-08-17T03:44:37;472.30;;;457.55;;
10315;SDS011;5203;48.976;8.306;2023-08-17T03:47:03;526.72;;;509.38;;
10315;SDS011;5203;48.976;8.306;2023-08-17T03:49:29;554.92;;;536.40;;
10315;SDS011;5203;48.976;8.306;2023-08-17T03:51:54;581.20;;;561.58;;
10315;SDS011;5203;48.976;8.306;2023-08-17T03:54:20;580.88;;;560.63;;
10315;SDS011;5203;48.976;8.306;2023-08-17T03:56:46;664.63;;;640.53;;
10315;SDS011;5203;48.976;8.306;2023-08-17T03:59:11;691.10;;;665.00;;
10315;SDS011;5203;48.976;8.306;2023-08-17T04:01:37;696.75;;;670.20;;
10315;SDS011;5203;48.976;8.306;2023-08-17T04:04:03;681.92;;;656.13;;
10315;SDS011;5203;48.976;8.306;2023-08-17T04:06:28;694.47;;;667.90;;
10315;SDS011;5203;48.976;8.306;2023-08-17T04:08:55;751.38;;;720.97;;
10315;SDS011;5203;48.976;8.306;2023-08-17T04:11:21;774.08;;;742.75;;
10315;SDS011;5203;48.976;8.306;2023-08-17T04:13:47;791.08;;;758.20;;
10315;SDS011;5203;48.976;8.306;2023-08-17T04:16:12;871.53;;;831.92;;
10315;SDS011;5203;48.976;8.306;2023-08-17T04:18:38;862.83;;;822.00;;
10315;SDS011;5203;48.976;8.306;2023-08-17T04:21:03;894.25;;;851.92;;
10315;SDS011;5203;48.976;8.306;2023-08-17T04:23:29;908.53;;;865.47;;
10315;SDS011;5203;48.976;8.306;2023-08-17T04:25:55;884.88;;;842.90;;
10315;SDS011;5203;48.976;8.306;2023-08-17T04:28:20;887.38;;;845.17;;
10315;SDS011;5203;48.976;8.306;2023-08-17T04:30:46;900.70;;;857.15;;
10315;SDS011;5203;48.976;8.306;2023-08-17T04:33:11;893.53;;;850.65;;
10315;SDS011;5203;48.976;8.306;2023-08-17T04:35:38;926.15;;;879.90;;
10315;SDS011;5203;48.976;8.306;2023-08-17T04:38:04;926.65;;;880.33;;
10315;SDS011;5203;48.976;8.306;2023-08-17T04:40:30;922.25;;;877.70;;
10315;SDS011;5203;48.976;8.306;2023-08-17T04:42:56;912.47;;;867.88;;
10315;SDS011;5203;48.976;8.306;2023-08-17T04:45:21;933.40;;;887.20;;
10315;SDS011;5203;48.976;8.306;2023-08-17T04:47:48;922.38;;;877.58;;
10315;SDS011;5203;48.976;8.306;2023-08-17T04:50:14;892.63;;;849.60;;
10315;SDS011;5203;48.976;8.306;2023-08-17T04:52:41;905.53;;;861.60;;
10315;SDS011;5203;48.976;8.306;2023-08-17T04:55:08;906.63;;;863.45;;
10315;SDS011;5203;48.976;8.306;2023-08-17T04:57:34;876.92;;;834.78;;
10315;SDS011;5203;48.976;8.306;2023-08-17T04:59:59;930.58;;;885.08;;
10315;SDS011;5203;48.976;8.306;2023-08-17T05:02:25;904.88;;;860.30;;
10315;SDS011;5203;48.976;8.306;2023-08-17T05:04:51;902.22;;;859.35;;
10315;SDS011;5203;48.976;8.306;2023-08-17T05:07:16;888.25;;;846.65;;
10315;SDS011;5203;48.976;8.306;2023-08-17T05:09:42;886.03;;;844.30;;
10315;SDS011;5203;48.976;8.306;2023-08-17T05:12:08;895.58;;;852.30;;
10315;SDS011;5203;48.976;8.306;2023-08-17T05:14:33;873.85;;;833.13;;
10315;SDS011;5203;48.976;8.306;2023-08-17T05:16:59;840.25;;;802.33;;
10315;SDS011;5203;48.976;8.306;2023-08-17T05:19:24;869.33;;;829.75;;
10315;SDS011;5203;48.976;8.306;2023-08-17T05:21:50;869.20;;;829.33;;
10315;SDS011;5203;48.976;8.306;2023-08-17T05:24:16;856.25;;;817.25;;
10315;SDS011;5203;48.976;8.306;2023-08-17T05:26:42;865.90;;;826.47;;
10315;SDS011;5203;48.976;8.306;2023-08-17T05:29:08;879.13;;;838.30;;
10315;SDS011;5203;48.976;8.306;2023-08-17T05:31:34;855.28;;;816.35;;
10315;SDS011;5203;48.976;8.306;2023-08-17T05:33:59;843.65;;;806.72;;
10315;SDS011;5203;48.976;8.306;2023-08-17T05:36:25;808.30;;;773.65;;
10315;SDS011;5203;48.976;8.306;2023-08-17T05:38:50;795.85;;;762.42;;
10315;SDS011;5203;48.976;8.306;2023-08-17T05:41:16;765.83;;;733.80;;
10315;SDS011;5203;48.976;8.306;2023-08-17T05:43:42;796.45;;;763.45;;
10315;SDS011;5203;48.976;8.306;2023-08-17T05:46:08;800.65;;;767.08;;
10315;SDS011;5203;48.976;8.306;2023-08-17T05:48:34;797.10;;;763.47;;
10315;SDS011;5203;48.976;8.306;2023-08-17T05:50:59;795.13;;;761.20;;
10315;SDS011;5203;48.976;8.306;2023-08-17T05:53:25;801.85;;;768.30;;
10315;SDS011;5203;48.976;8.306;2023-08-17T05:55:50;820.08;;;785.17;;
10315;SDS011;5203;48.976;8.306;2023-08-17T05:58:16;823.90;;;788.45;;
10315;SDS011;5203;48.976;8.306;2023-08-17T06:00:41;836.25;;;799.58;;
10315;SDS011;5203;48.976;8.306;2023-08-17T06:03:07;863.70;;;824.30;;
10315;SDS011;5203;48.976;8.306;2023-08-17T06:05:33;880.78;;;839.72;;
10315;SDS011;5203;48.976;8.306;2023-08-17T06:07:59;892.42;;;850.22;;
10315;SDS011;5203;48.976;8.306;2023-08-17T06:10:25;859.67;;;820.70;;
10315;SDS011;5203;48.976;8.306;2023-08-17T06:12:55;909.00;;;865.38;;
10315;SDS011;5203;48.976;8.306;2023-08-17T06:15:21;895.17;;;852.33;;
10315;SDS011;5203;48.976;8.306;2023-08-17T06:17:47;927.03;;;881.35;;
10315;SDS011;5203;48.976;8.306;2023-08-17T06:20:16;919.38;;;873.80;;
10315;SDS011;5203;48.976;8.306;2023-08-17T06:22:43;945.05;;;896.72;;
10315;SDS011;5203;48.976;8.306;2023-08-17T06:25:08;914.65;;;869.47;;
10315;SDS011;5203;48.976;8.306;2023-08-17T06:27:35;944.13;;;896.92;;
10315;SDS011;5203;48.976;8.306;2023-08-17T06:30:01;954.90;;;905.83;;
10315;SDS011;5203;48.976;8.306;2023-08-17T06:32:28;987.60;;;933.83;;
10315;SDS011;5203;48.976;8.306;2023-08-17T06:34:54;955.80;;;906.72;;
10315;SDS011;5203;48.976;8.306;2023-08-17T06:37:20;989.88;;;937.38;;
10315;SDS011;5203;48.976;8.306;2023-08-17T06:39:45;946.88;;;897.78;;
10315;SDS011;5203;48.976;8.306;2023-08-17T06:42:11;943.60;;;895.33;;
10315;SDS011;5203;48.976;8.306;2023-08-17T06:44:37;944.67;;;896.65;;
10315;SDS011;5203;48.976;8.306;2023-08-17T06:47:03;957.47;;;907.08;;
10315;SDS011;5203;48.976;8.306;2023-08-17T06:49:28;1015.55;;;958.00;;
10315;SDS011;5203;48.976;8.306;2023-08-17T06:51:55;1268.43;;;974.13;;
10315;SDS011;5203;48.976;8.306;2023-08-17T06:54:20;1496.25;;;966.30;;
10315;SDS011;5203;48.976;8.306;2023-08-17T06:56:46;1999.90;;;999.90;;
10315;SDS011;5203;48.976;8.306;2023-08-17T06:59:11;1999.90;;;999.90;;
10315;SDS011;5203;48.976;8.306;2023-08-17T07:01:37;1999.90;;;999.90;;
10315;SDS011;5203;48.976;8.306;2023-08-17T07:04:03;1999.90;;;999.90;;
10315;SDS011;5203;48.976;8.306;2023-08-17T07:06:29;1999.90;;;999.90;;
10315;SDS011;5203;48.976;8.306;2023-08-17T07:08:54;1999.90;;;999.90;;
10315;SDS011;5203;48.976;8.306;2023-08-17T07:11:20;1999.90;;;999.90;;
10315;SDS011;5203;48.976;8.306;2023-08-17T07:13:46;1999.90;;;999.90;;
10315;SDS011;5203;48.976;8.306;2023-08-17T07:16:11;1999.90;;;999.90;;
10315;SDS011;5203;48.976;8.306;2023-08-17T07:20:58;1999.90;;;999.90;;
10315;SDS011;5203;48.976;8.306;2023-08-17T07:23:24;1999.90;;;999.90;;
10315;SDS011;5203;48.976;8.306;2023-08-17T07:25:49;1999.90;;;999.90;;
10315;SDS011;5203;48.976;8.306;2023-08-17T07:28:15;1999.90;;;999.90;;
10315;SDS011;5203;48.976;8.306;2023-08-17T07:30:41;1999.90;;;999.90;;
10315;SDS011;5203;48.976;8.306;2023-08-17T07:33:07;1999.90;;;999.90;;
10315;SDS011;5203;48.976;8.306;2023-08-17T07:35:32;1999.90;;;999.90;;
10315;SDS011;5203;48.976;8.306;2023-08-17T07:37:59;1999.90;;;999.90;;
10315;SDS011;5203;48.976;8.306;2023-08-17T07:40:25;1999.90;;;999.90;;
10315;SDS011;5203;48.976;8.306;2023-08-17T07:42:50;1999.90;;;999.90;;
10315;SDS011;5203;48.976;8.306;2023-08-17T07:45:16;1999.90;;;999.90;;
10315;SDS011;5203;48.976;8.306;2023-08-17T07:47:42;1999.90;;;999.90;;
10315;SDS011;5203;48.976;8.306;2023-08-17T07:50:07;1999.90;;;999.90;;
10315;SDS011;5203;48.976;8.306;2023-08-17T07:52:33;1999.90;;;999.90;;
10315;SDS011;5203;48.976;8.306;2023-08-17T07:54:59;1999.90;;;999.90;;
10315;SDS011;5203;48.976;8.306;2023-08-17T07:57:25;1999.90;;;999.90;;
10315;SDS011;5203;48.976;8.306;2023-08-17T07:59:50;1999.90;;;999.90;;
10315;SDS011;5203;48.976;8.306;2023-08-17T08:02:16;1999.90;;;999.90;;
10315;SDS011;5203;48.976;8.306;2023-08-17T08:04:42;1999.90;;;999.90;;
10315;SDS011;5203;48.976;8.306;2023-08-17T08:07:08;1999.90;;;999.90;;
10315;SDS011;5203;48.976;8.306;2023-08-17T08:09:34;1999.90;;;999.90;;
10315;SDS011;5203;48.976;8.306;2023-08-17T08:12:00;1999.90;;;999.90;;
10315;SDS011;5203;48.976;8.306;2023-08-17T08:14:26;1999.90;;;999.90;;
10315;SDS011;5203;48.976;8.306;2023-08-17T08:16:51;1999.90;;;999.90;;
10315;SDS011;5203;48.976;8.306;2023-08-17T08:19:17;1999.90;;;999.90;;
10315;SDS011;5203;48.976;8.306;2023-08-17T08:21:43;1999.90;;;999.90;;
10315;SDS011;5203;48.976;8.306;2023-08-17T08:24:08;1999.90;;;999.90;;
10315;SDS011;5203;48.976;8.306;2023-08-17T08:26:34;1999.90;;;999.90;;
10315;SDS011;5203;48.976;8.306;2023-08-17T08:29:00;1999.90;;;999.90;;
10315;SDS011;5203;48.976;8.306;2023-08-17T08:31:25;1999.90;;;999.90;;
10315;SDS011;5203;48.976;8.306;2023-08-17T08:33:51;1999.90;;;999.90;;
10315;SDS011;5203;48.976;8.306;2023-08-17T08:36:18;1999.90;;;999.90;;
10315;SDS011;5203;48.976;8.306;2023-08-17T08:38:43;1999.90;;;999.90;;
10315;SDS011;5203;48.976;8.306;2023-08-17T08:41:10;1999.90;;;999.90;;
10315;SDS011;5203;48.976;8.306;2023-08-17T08:43:37;1999.90;;;999.90;;
10315;SDS011;5203;48.976;8.306;2023-08-17T08:46:04;1999.90;;;999.90;;
10315;SDS011;5203;48.976;8.306;2023-08-17T08:48:30;1999.90;;;999.90;;
10315;SDS011;5203;48.976;8.306;2023-08-17T08:50:58;1999.90;;;999.90;;
10315;SDS011;5203;48.976;8.306;2023-08-17T08:53:32;1999.90;;;999.90;;
10315;SDS011;5203;48.976;8.306;2023-08-17T08:56:02;1999.90;;;999.90;;
10315;SDS011;5203;48.976;8.306;2023-08-17T08:58:29;1999.90;;;999.90;;
10315;SDS011;5203;48.976;8.306;2023-08-17T09:00:57;1999.90;;;999.90;;
10315;SDS011;5203;48.976;8.306;2023-08-17T09:03:23;1999.90;;;999.90;;
10315;SDS011;5203;48.976;8.306;2023-08-17T09:05:50;1999.90;;;999.90;;
10315;SDS011;5203;48.976;8.306;2023-08-17T09:08:20;1999.90;;;999.90;;
10315;SDS011;5203;48.976;8.306;2023-08-17T09:10:47;1999.90;;;999.90;;
10315;SDS011;5203;48.976;8.306;2023-08-17T09:13:14;1999.90;;;999.90;;
10315;SDS011;5203;48.976;8.306;2023-08-17T09:15:40;1999.90;;;999.90;;
10315;SDS011;5203;48.976;8.306;2023-08-17T09:18:06;1999.90;;;999.90;;
10315;SDS011;5203;48.976;8.306;2023-08-17T09:20:36;1999.90;;;999.90;;
10315;SDS011;5203;48.976;8.306;2023-08-17T09:23:15;1999.90;;;999.90;;
10315;SDS011;5203;48.976;8.306;2023-08-17T09:25:42;1999.90;;;999.90;;
10315;SDS011;5203;48.976;8.306;2023-08-17T09:28:13;1999.90;;;999.90;;
10315;SDS011;5203;48.976;8.306;2023-08-17T09:30:54;1999.90;;;999.90;;
10315;SDS011;5203;48.976;8.306;2023-08-17T09:33:23;1999.90;;;999.90;;
10315;SDS011;5203;48.976;8.306;2023-08-17T09:35:51;1999.90;;;999.90;;
10315;SDS011;5203;48.976;8.306;2023-08-17T09:38:17;1999.90;;;999.90;;
10315;SDS011;5203;48.976;8.306;2023-08-17T09:40:44;1999.90;;;999.90;;
10315;SDS011;5203;48.976;8.306;2023-08-17T09:43:10;1999.90;;;999.90;;
10315;SDS011;5203;48.976;8.306;2023-08-17T09:45:38;1999.90;;;999.90;;
10315;SDS011;5203;48.976;8.306;2023-08-17T09:48:05;1999.90;;;999.90;;
10315;SDS011;5203;48.976;8.306;2023-08-17T09:50:34;1999.90;;;999.90;;
10315;SDS011;5203;48.976;8.306;2023-08-17T09:53:03;1999.90;;;999.90;;
10315;SDS011;5203;48.976;8.306;2023-08-17T09:55:34;1999.90;;;999.90;;
10315;SDS011;5203;48.976;8.306;2023-08-17T09:58:02;1999.90;;;999.90;;
10315;SDS011;5203;48.976;8.306;2023-08-17T10:00:28;1999.90;;;999.90;;
10315;SDS011;5203;48.976;8.306;2023-08-17T10:02:57;1999.90;;;999.90;;
10315;SDS011;5203;48.976;8.306;2023-08-17T10:05:26;1999.90;;;999.90;;
10315;SDS011;5203;48.976;8.306;2023-08-17T10:07:57;1999.90;;;999.90;;
10315;SDS011;5203;48.976;8.306;2023-08-17T10:10:25;1999.90;;;999.90;;
10315;SDS011;5203;48.976;8.306;2023-08-17T10:13:05;1999.90;;;999.90;;
10315;SDS011;5203;48.976;8.306;2023-08-17T10:23:56;1999.90;;;999.90;;
10315;SDS011;5203;48.976;8.306;2023-08-17T10:26:23;1999.90;;;999.90;;
10315;SDS011;5203;48.976;8.306;2023-08-17T10:28:50;1999.90;;;999.90;;
10315;SDS011;5203;48.976;8.306;2023-08-17T10:31:18;1999.90;;;999.90;;
10315;SDS011;5203;48.976;8.306;2023-08-17T10:33:45;1999.90;;;999.90;;
10315;SDS011;5203;48.976;8.306;2023-08-17T10:36:12;1999.90;;;999.90;;
10315;SDS011;5203;48.976;8.306;2023-08-17T10:38:39;1999.90;;;999.90;;
10315;SDS011;5203;48.976;8.306;2023-08-17T10:41:12;1999.90;;;999.90;;
10315;SDS011;5203;48.976;8.306;2023-08-17T10:43:58;1999.90;;;999.90;;
10315;SDS011;5203;48.976;8.306;2023-08-17T10:46:34;1999.90;;;999.90;;
10315;SDS011;5203;48.976;8.306;2023-08-17T10:49:05;1999.90;;;999.90;;
10315;SDS011;5203;48.976;8.306;2023-08-17T10:52:02;1999.90;;;999.90;;
10315;SDS011;5203;48.976;8.306;2023-08-17T10:54:36;1999.90;;;999.90;;
10315;SDS011;5203;48.976;8.306;2023-08-17T11:02:53;1999.90;;;999.90;;
10315;SDS011;5203;48.976;8.306;2023-08-17T11:05:40;1999.90;;;999.90;;
10315;SDS011;5203;48.976;8.306;2023-08-17T11:08:38;1999.90;;;999.90;;
10315;SDS011;5203;48.976;8.306;2023-08-17T11:11:11;1999.90;;;999.90;;
10315;SDS011;5203;48.976;8.306;2023-08-17T11:13:41;1999.90;;;999.90;;
10315;SDS011;5203;48.976;8.306;2023-08-17T11:16:08;1182.40;;;899.72;;
10315;SDS011;5203;48.976;8.306;2023-08-17T11:18:35;1999.90;;;999.90;;
10315;SDS011;5203;48.976;8.306;2023-08-17T11:21:01;1999.90;;;999.90;;
10315;SDS011;5203;48.976;8.306;2023-08-17T11:23:29;923.28;;;879.00;;
10315;SDS011;5203;48.976;8.306;2023-08-17T11:25:55;942.80;;;896.92;;
10315;SDS011;5203;48.976;8.306;2023-08-17T11:28:22;946.17;;;898.70;;
10315;SDS011;5203;48.976;8.306;2023-08-17T11:31:01;1001.30;;;949.00;;
10315;SDS011;5203;48.976;8.306;2023-08-17T11:33:28;993.13;;;940.80;;
10315;SDS011;5203;48.976;8.306;2023-08-17T11:35:55;972.58;;;922.85;;
10315;SDS011;5203;48.976;8.306;2023-08-17T11:38:21;1004.10;;;951.10;;
10315;SDS011;5203;48.976;8.306;2023-08-17T11:40:47;983.00;;;931.72;;
10315;SDS011;5203;48.976;8.306;2023-08-17T11:43:13;941.42;;;894.90;;
10315;SDS011;5203;48.976;8.306;2023-08-17T11:45:39;952.60;;;905.85;;
10315;SDS011;5203;48.976;8.306;2023-08-17T11:48:05;940.05;;;893.60;;
10315;SDS011;5203;48.976;8.306;2023-08-17T11:50:31;946.65;;;899.83;;
10315;SDS011;5203;48.976;8.306;2023-08-17T11:52:59;944.30;;;897.70;;
10315;SDS011;5203;48.976;8.306;2023-08-17T11:55:29;944.03;;;896.78;;
10315;SDS011;5203;48.976;8.306;2023-08-17T11:57:55;953.65;;;905.65;;
10315;SDS011;5203;48.976;8.306;2023-08-17T12:00:21;956.35;;;908.75;;
10315;SDS011;5203;48.976;8.306;2023-08-17T12:02:50;929.40;;;884.03;;
10315;SDS011;5203;48.976;8.306;2023-08-17T12:05:23;931.03;;;886.08;;
10315;SDS011;5203;48.976;8.306;2023-08-17T12:07:50;947.03;;;899.95;;
10315;SDS011;5203;48.976;8.306;2023-08-17T12:10:17;943.03;;;895.30;;
10315;SDS011;5203;48.976;8.306;2023-08-17T12:12:44;951.70;;;904.70;;
10315;SDS011;5203;48.976;8.306;2023-08-17T12:15:18;990.95;;;937.53;;
10315;SDS011;5203;48.976;8.306;2023-08-17T12:17:44;967.90;;;916.95;;
10315;SDS011;5203;48.976;8.306;2023-08-17T12:20:15;1034.30;;;976.95;;
10315;SDS011;5203;48.976;8.306;2023-08-17T12:22:44;1046.70;;;986.92;;
10315;SDS011;5203;48.976;8.306;2023-08-17T12:25:14;1018.97;;;963.10;;
10315;SDS011;5203;48.976;8.306;2023-08-17T12:27:40;1007.85;;;954.85;;
10315;SDS011;5203;48.976;8.306;2023-08-17T12:30:14;972.35;;;922.92;;
10315;SDS011;5203;48.976;8.306;2023-08-17T12:32:49;1010.10;;;955.00;;
10315;SDS011;5203;48.976;8.306;2023-08-17T12:35:15;1032.38;;;974.67;;
10315;SDS011;5203;48.976;8.306;2023-08-17T12:37:40;1038.03;;;979.70;;
10315;SDS011;5203;48.976;8.306;2023-08-17T12:40:06;1073.13;;;999.50;;
10315;SDS011;5203;48.976;8.306;2023-08-17T12:42:33;1099.18;;;999.90;;
10315;SDS011;5203;48.976;8.306;2023-08-17T12:44:58;1076.82;;;999.85;;
10315;SDS011;5203;48.976;8.306;2023-08-17T12:47:24;1108.78;;;999.90;;
10315;SDS011;5203;48.976;8.306;2023-08-17T12:49:49;1076.43;;;998.70;;
10315;SDS011;5203;48.976;8.306;2023-08-17T12:52:15;1006.05;;;950.03;;
10315;SDS011;5203;48.976;8.306;2023-08-17T12:54:41;1055.57;;;992.47;;
10315;SDS011;5203;48.976;8.306;2023-08-17T12:57:06;1108.03;;;999.90;;
10315;SDS011;5203;48.976;8.306;2023-08-17T12:59:32;1073.72;;;998.58;;
10315;SDS011;5203;48.976;8.306;2023-08-17T13:01:58;1040.10;;;979.55;;
10315;SDS011;5203;48.976;8.306;2023-08-17T13:04:23;940.28;;;894.65;;
10315;SDS011;5203;48.976;8.306;2023-08-17T13:06:49;939.53;;;893.28;;
10315;SDS011;5203;48.976;8.306;2023-08-17T13:09:16;949.10;;;901.92;;
10315;SDS011;5203;48.976;8.306;2023-08-17T13:11:43;993.53;;;941.33;;
10315;SDS011;5203;48.976;8.306;2023-08-17T13:14:10;1026.28;;;970.63;;
10315;SDS011;5203;48.976;8.306;2023-08-17T13:16:35;987.67;;;935.50;;
10315;SDS011;5203;48.976;8.306;2023-08-17T13:19:01;986.10;;;933.78;;
10315;SDS011;5203;48.976;8.306;2023-08-17T13:21:27;991.72;;;939.58;;
10315;SDS011;5203;48.976;8.306;2023-08-17T13:23:53;1030.82;;;975.25;;
10315;SDS011;5203;48.976;8.306;2023-08-17T13:26:18;1002.60;;;949.03;;
10315;SDS011;5203;48.976;8.306;2023-08-17T13:28:46;1000.38;;;947.35;;
10315;SDS011;5203;48.976;8.306;2023-08-17T13:31:11;1012.88;;;958.50;;
10315;SDS011;5203;48.976;8.306;2023-08-17T13:33:37;991.35;;;937.97;;
10315;SDS011;5203;48.976;8.306;2023-08-17T13:36:03;968.33;;;918.25;;
10315;SDS011;5203;48.976;8.306;2023-08-17T13:38:28;934.53;;;888.55;;
10315;SDS011;5203;48.976;8.306;2023-08-17T13:40:54;872.25;;;832.67;;
10315;SDS011;5203;48.976;8.306;2023-08-17T13:43:20;864.00;;;825.42;;
10315;SDS011;5203;48.976;8.306;2023-08-17T13:45:45;869.80;;;830.85;;
10315;SDS011;5203;48.976;8.306;2023-08-17T13:48:11;852.53;;;815.38;;
10315;SDS011;5203;48.976;8.306;2023-08-17T13:50:37;871.28;;;831.40;;
10315;SDS011;5203;48.976;8.306;2023-08-17T13:53:03;901.60;;;859.25;;
10315;SDS011;5203;48.976;8.306;2023-08-17T13:55:29;926.20;;;881.60;;
10315;SDS011;5203;48.976;8.306;2023-08-17T13:57:55;891.15;;;850.80;;
10315;SDS011;5203;48.976;8.306;2023-08-17T14:00:24;889.80;;;849.67;;
10315;SDS011;5203;48.976;8.306;2023-08-17T14:02:51;802.88;;;770.10;;
10315;SDS011;5203;48.976;8.306;2023-08-17T14:05:17;835.17;;;800.15;;
10315;SDS011;5203;48.976;8.306;2023-08-17T14:07:42;870.28;;;830.78;;
10315;SDS011;5203;48.976;8.306;2023-08-17T14:10:10;796.38;;;764.15;;
10315;SDS011;5203;48.976;8.306;2023-08-17T14:12:36;825.58;;;790.78;;
10315;SDS011;5203;48.976;8.306;2023-08-17T14:15:01;788.08;;;755.70;;
10315;SDS011;5203;48.976;8.306;2023-08-17T14:17:27;812.25;;;778.95;;
10315;SDS011;5203;48.976;8.306;2023-08-17T14:19:53;820.17;;;786.10;;